createdAt,value
2023-05-16T00:00:06.864Z,11.10
2023-05-16T00:02:33.920Z,11.10
2023-05-16T00:05:01.115Z,11.10
2023-05-16T00:07:27.997Z,11.10
2023-05-16T00:09:54.938Z,11.00
2023-05-16T00:12:22.792Z,11.00
2023-05-16T00:14:51.456Z,11.00
2023-05-16T00:17:20.471Z,11.00
2023-05-16T00:19:58.224Z,10.90
2023-05-16T00:22:25.530Z,10.90
2023-05-16T00:24:52.500Z,10.90
2023-05-16T00:27:19.491Z,10.90
2023-05-16T00:29:46.367Z,10.90
2023-05-16T00:32:13.467Z,10.90
2023-05-16T00:34:40.448Z,10.90
2023-05-16T00:37:07.352Z,10.90
2023-05-16T00:39:34.216Z,10.90
2023-05-16T00:42:01.386Z,10.80
2023-05-16T00:44:28.683Z,10.90
2023-05-16T00:46:55.628Z,10.90
2023-05-16T00:49:22.620Z,10.90
2023-05-16T00:51:49.562Z,10.80
2023-05-16T00:54:17.690Z,10.80
2023-05-16T00:56:44.689Z,10.90
2023-05-16T00:59:11.563Z,10.90
2023-05-16T01:01:38.801Z,10.90
2023-05-16T01:04:06.165Z,10.80
2023-05-16T01:06:35.037Z,10.80
2023-05-16T01:09:02.029Z,10.90
2023-05-16T01:11:34.595Z,10.90
2023-05-16T01:14:25.726Z,10.90
2023-05-16T01:17:10.137Z,10.90
2023-05-16T01:20:06.390Z,10.90
2023-05-16T01:22:52.680Z,10.90
2023-05-16T01:25:52.603Z,10.90
2023-05-16T01:28:19.379Z,10.90
2023-05-16T01:30:46.250Z,10.80
2023-05-16T01:33:13.105Z,10.80
2023-05-16T01:35:47.463Z,10.80
2023-05-16T01:38:22.130Z,10.80
2023-05-16T01:40:56.051Z,10.80
2023-05-16T01:43:37.523Z,10.80
2023-05-16T01:46:16.467Z,10.80
2023-05-16T01:48:51.021Z,10.70
2023-05-16T01:51:18.101Z,10.70
2023-05-16T01:53:45.534Z,10.70
2023-05-16T01:56:15.261Z,10.60
2023-05-16T01:58:43.501Z,10.60
2023-05-16T02:01:11.581Z,10.50
2023-05-16T02:03:38.584Z,10.50
2023-05-16T02:06:07.675Z,10.60
2023-05-16T02:08:34.458Z,10.50
2023-05-16T02:11:01.316Z,10.50
2023-05-16T02:13:28.230Z,10.50
2023-05-16T02:15:55.106Z,10.40
2023-05-16T02:18:23.649Z,10.40
2023-05-16T02:20:50.650Z,10.30
2023-05-16T02:23:17.499Z,10.30
2023-05-16T02:25:44.467Z,10.30
2023-05-16T02:28:11.474Z,10.30
2023-05-16T02:30:38.393Z,10.30
2023-05-16T02:33:05.359Z,10.30
2023-05-16T02:35:32.313Z,10.20
2023-05-16T02:38:00.204Z,10.10
2023-05-16T02:40:26.989Z,10.10
2023-05-16T02:42:53.767Z,10.00
2023-05-16T02:45:20.564Z,10.00
2023-05-16T02:47:47.420Z,10.00
2023-05-16T02:50:14.244Z,10.00
2023-05-16T02:52:41.140Z,10.00
2023-05-16T02:57:38.030Z,9.90
2023-05-16T03:00:06.223Z,9.80
2023-05-16T03:02:33.273Z,9.80
2023-05-16T03:05:00.562Z,9.80
2023-05-16T03:07:27.468Z,9.70
2023-05-16T03:09:54.305Z,9.70
2023-05-16T03:12:21.088Z,9.70
2023-05-16T03:14:47.861Z,9.60
2023-05-16T03:17:14.638Z,9.60
2023-05-16T03:19:41.596Z,9.50
2023-05-16T03:22:08.434Z,9.50
2023-05-16T03:24:35.518Z,9.50
2023-05-16T03:27:03.722Z,9.50
2023-05-16T03:29:30.809Z,9.50
2023-05-16T03:31:57.658Z,9.50
2023-05-16T03:34:24.765Z,9.50
2023-05-16T03:36:52.406Z,9.50
2023-05-16T03:39:19.162Z,9.50
2023-05-16T03:41:46.068Z,9.50
2023-05-16T03:44:12.888Z,9.50
2023-05-16T03:46:39.769Z,9.50
2023-05-16T03:49:06.719Z,9.50
2023-05-16T03:51:34.181Z,9.50
2023-05-16T03:54:01.106Z,9.50
2023-05-16T03:56:28.052Z,9.50
2023-05-16T03:58:54.846Z,9.50
2023-05-16T04:01:22.541Z,9.40
2023-05-16T04:03:50.700Z,9.40
2023-05-16T04:06:17.888Z,9.40
2023-05-16T04:08:45.084Z,9.40
2023-05-16T04:11:12.226Z,9.40
2023-05-16T04:13:39.252Z,9.40
2023-05-16T04:16:06.626Z,9.50
2023-05-16T04:18:33.631Z,9.50
2023-05-16T04:21:00.506Z,9.50
2023-05-16T04:23:27.425Z,9.50
2023-05-16T04:25:55.174Z,9.50
2023-05-16T04:28:22.285Z,9.50
2023-05-16T04:30:49.329Z,9.50
2023-05-16T04:33:16.756Z,9.50
2023-05-16T04:35:43.511Z,9.50
2023-05-16T04:38:10.511Z,9.50
2023-05-16T04:40:37.720Z,9.40
2023-05-16T04:43:04.693Z,9.40
2023-05-16T04:45:31.559Z,9.30
2023-05-16T04:47:58.497Z,9.30
2023-05-16T04:50:25.381Z,9.30
2023-05-16T04:52:53.128Z,9.30
2023-05-16T04:55:21.446Z,9.30
2023-05-16T04:57:48.322Z,9.30
2023-05-16T05:00:16.361Z,9.30
2023-05-16T05:02:43.818Z,9.20
2023-05-16T05:05:11.674Z,9.30
2023-05-16T05:07:38.488Z,9.30
2023-05-16T05:10:06.653Z,9.30
2023-05-16T05:12:33.748Z,9.20
2023-05-16T05:15:01.877Z,9.20
2023-05-16T05:17:29.739Z,9.20
2023-05-16T05:19:56.675Z,9.20
2023-05-16T05:22:23.565Z,9.10
2023-05-16T05:24:50.486Z,9.20
2023-05-16T05:27:17.391Z,9.20
2023-05-16T05:29:44.310Z,9.20
2023-05-16T05:32:11.128Z,9.30
2023-05-16T05:34:37.944Z,9.30
2023-05-16T05:37:04.916Z,9.40
2023-05-16T05:39:31.841Z,9.40
2023-05-16T05:41:58.785Z,9.40
2023-05-16T05:44:25.644Z,9.50
2023-05-16T05:46:52.549Z,9.40
2023-05-16T05:49:19.475Z,9.50
2023-05-16T05:51:46.428Z,9.50
2023-05-16T05:54:13.414Z,9.50
2023-05-16T05:56:40.254Z,9.60
2023-05-16T05:59:07.133Z,9.60
2023-05-16T06:01:34.040Z,9.60
2023-05-16T06:04:02.209Z,9.70
2023-05-16T06:06:29.344Z,9.70
2023-05-16T06:08:56.161Z,9.70
2023-05-16T06:11:23.327Z,9.80
2023-05-16T06:13:50.471Z,9.80
2023-05-16T06:16:17.490Z,9.90
2023-05-16T06:18:44.618Z,10.00
2023-05-16T06:21:11.494Z,10.00
2023-05-16T06:23:38.296Z,10.10
2023-05-16T06:26:05.171Z,10.20
2023-05-16T06:28:31.950Z,10.20
2023-05-16T06:30:58.853Z,10.30
2023-05-16T06:33:25.786Z,10.30
2023-05-16T06:35:52.914Z,10.40
2023-05-16T06:38:19.960Z,10.40
2023-05-16T06:40:47.002Z,10.50
2023-05-16T06:43:13.850Z,10.60
2023-05-16T06:45:41.277Z,10.70
2023-05-16T06:48:08.817Z,10.70
2023-05-16T06:50:35.913Z,10.80
2023-05-16T06:53:04.981Z,10.90
2023-05-16T06:55:31.916Z,11.10
2023-05-16T06:57:58.844Z,11.30
2023-05-16T07:00:25.961Z,11.40
2023-05-16T07:02:53.477Z,11.60
2023-05-16T07:05:20.557Z,11.70
2023-05-16T07:07:49.490Z,11.70
2023-05-16T07:10:16.553Z,11.80
2023-05-16T07:12:43.523Z,11.90
2023-05-16T07:15:10.903Z,11.90
2023-05-16T07:17:37.820Z,11.90
2023-05-16T07:20:05.999Z,12.00
2023-05-16T07:22:32.901Z,12.10
2023-05-16T07:25:01.299Z,12.10
2023-05-16T07:27:28.565Z,12.10
2023-05-16T07:29:55.425Z,12.20
2023-05-16T07:32:22.435Z,12.20
2023-05-16T07:34:49.447Z,12.30
2023-05-16T07:37:16.407Z,12.30
2023-05-16T07:39:43.262Z,12.30
2023-05-16T07:42:10.283Z,12.30
2023-05-16T07:44:37.096Z,12.40
2023-05-16T07:47:04.044Z,12.50
2023-05-16T07:49:30.889Z,12.60
2023-05-16T07:51:57.727Z,12.70
2023-05-16T07:54:24.508Z,12.80
2023-05-16T07:56:51.411Z,12.90
2023-05-16T07:59:18.287Z,13.00
2023-05-16T08:01:45.175Z,13.10
2023-05-16T08:04:12.084Z,13.20
2023-05-16T08:06:38.933Z,13.20
2023-05-16T08:09:05.922Z,13.30
2023-05-16T08:11:32.850Z,13.40
2023-05-16T08:13:59.645Z,13.50
2023-05-16T08:16:26.616Z,13.60
2023-05-16T08:18:53.783Z,13.60
2023-05-16T08:21:20.730Z,13.60
2023-05-16T08:23:47.612Z,13.70
2023-05-16T08:26:14.518Z,13.80
2023-05-16T08:28:41.374Z,13.80
2023-05-16T08:31:08.287Z,13.90
2023-05-16T08:33:38.780Z,14.00
2023-05-16T08:36:06.545Z,14.00
2023-05-16T08:38:33.465Z,14.10
2023-05-16T08:41:00.364Z,14.20
2023-05-16T08:43:27.250Z,14.30
2023-05-16T08:45:54.320Z,14.50
2023-05-16T08:48:23.058Z,14.60
2023-05-16T08:50:50.223Z,14.70
2023-05-16T08:53:20.633Z,14.90
2023-05-16T08:55:48.524Z,15.00
2023-05-16T08:58:15.763Z,15.10
2023-05-16T09:00:42.635Z,15.20
2023-05-16T09:03:09.692Z,15.30
2023-05-16T09:05:36.652Z,15.50
2023-05-16T09:08:03.611Z,15.50
2023-05-16T09:10:30.448Z,15.60
2023-05-16T09:12:57.460Z,15.70
2023-05-16T09:15:24.360Z,15.70
2023-05-16T09:17:51.679Z,15.80
2023-05-16T09:20:19.750Z,15.90
2023-05-16T09:23:00.142Z,16.00
2023-05-16T09:25:30.889Z,16.10
2023-05-16T09:28:01.311Z,16.30
2023-05-16T09:30:30.198Z,16.40
2023-05-16T09:32:57.341Z,16.60
2023-05-16T09:35:42.510Z,16.90
2023-05-16T09:38:15.848Z,17.10
2023-05-16T09:40:43.778Z,17.40
2023-05-16T09:43:10.622Z,17.70
2023-05-16T09:45:37.558Z,17.90
2023-05-16T09:48:09.219Z,18.00
2023-05-16T09:50:37.155Z,18.10
2023-05-16T09:53:04.151Z,18.30
2023-05-16T09:55:31.576Z,18.20
2023-05-16T09:57:58.592Z,18.10
2023-05-16T10:00:32.564Z,18.10
2023-05-16T10:03:02.417Z,18.00
2023-05-16T10:05:31.551Z,17.90
2023-05-16T10:08:00.784Z,17.90
2023-05-16T10:10:28.617Z,18.00
2023-05-16T10:12:56.514Z,18.10
2023-05-16T10:15:23.420Z,18.30
2023-05-16T10:17:52.674Z,18.60
2023-05-16T10:20:19.611Z,18.70
2023-05-16T10:22:46.552Z,18.70
2023-05-16T10:25:18.721Z,18.70
2023-05-16T10:27:46.048Z,18.70
2023-05-16T10:30:13.182Z,18.60
2023-05-16T10:32:42.554Z,18.50
2023-05-16T10:35:10.293Z,18.50
2023-05-16T10:37:37.228Z,18.50
2023-05-16T10:40:05.968Z,18.60
2023-05-16T10:42:33.791Z,18.80
2023-05-16T10:45:18.079Z,19.10
2023-05-16T10:47:59.031Z,19.40
2023-05-16T10:50:36.083Z,19.60
2023-05-16T10:53:22.850Z,19.70
2023-05-16T10:55:51.156Z,19.90
2023-05-16T10:58:39.149Z,20.10
2023-05-16T11:01:38.288Z,20.50
2023-05-16T11:04:10.228Z,20.60
2023-05-16T11:06:43.110Z,20.60
2023-05-16T11:09:16.048Z,20.60
2023-05-16T11:11:53.398Z,20.60
2023-05-16T11:14:24.057Z,20.50
2023-05-16T11:17:11.020Z,20.20
2023-05-16T11:19:48.950Z,20.00
2023-05-16T11:22:25.435Z,19.90
2023-05-16T11:25:16.377Z,20.10
2023-05-16T11:27:44.774Z,20.30
2023-05-16T11:30:16.204Z,20.60
2023-05-16T11:32:46.090Z,20.80
2023-05-16T11:35:17.443Z,20.60
2023-05-16T11:37:45.038Z,20.40
2023-05-16T11:40:12.858Z,20.20
2023-05-16T11:42:48.786Z,20.00
2023-05-16T11:45:16.938Z,20.00
2023-05-16T11:47:44.672Z,19.90
2023-05-16T11:50:15.675Z,19.90
2023-05-16T11:52:57.772Z,20.00
2023-05-16T11:55:41.294Z,20.30
2023-05-16T11:58:09.402Z,20.50
2023-05-16T12:00:36.564Z,20.70
2023-05-16T12:03:07.809Z,20.60
2023-05-16T12:05:35.788Z,20.50
2023-05-16T12:08:04.765Z,20.50
2023-05-16T12:10:32.036Z,20.50
2023-05-16T12:12:59.114Z,20.70
2023-05-16T12:15:26.378Z,21.10
2023-05-16T12:17:53.458Z,21.50
2023-05-16T12:20:20.386Z,21.90
2023-05-16T12:22:47.315Z,22.30
2023-05-16T12:25:37.760Z,22.50
2023-05-16T12:28:04.995Z,22.60
2023-05-16T12:30:32.504Z,22.70
2023-05-16T12:33:01.051Z,22.90
2023-05-16T12:35:33.228Z,23.10
2023-05-16T12:38:01.157Z,23.30
2023-05-16T12:40:31.418Z,23.50
2023-05-16T12:42:58.375Z,23.70
2023-05-16T12:45:29.530Z,24.00
2023-05-16T12:47:56.602Z,24.20
2023-05-16T12:50:23.629Z,24.50
2023-05-16T12:52:51.582Z,24.40
2023-05-16T12:55:18.978Z,24.40
2023-05-16T12:57:47.711Z,24.70
2023-05-16T13:00:15.880Z,24.90
2023-05-16T13:02:42.820Z,25.10
2023-05-16T13:05:10.471Z,25.40
2023-05-16T13:07:39.619Z,25.70
2023-05-16T13:10:10.525Z,25.90
2023-05-16T13:12:38.405Z,26.10
2023-05-16T13:15:08.216Z,26.30
2023-05-16T13:17:35.640Z,26.50
2023-05-16T13:20:08.033Z,26.80
2023-05-16T13:22:35.011Z,27.10
2023-05-16T13:25:02.460Z,27.40
2023-05-16T13:27:29.461Z,27.80
2023-05-16T13:29:56.450Z,28.20
2023-05-16T13:32:23.274Z,28.50
2023-05-16T13:34:50.109Z,28.90
2023-05-16T13:37:17.673Z,29.20
2023-05-16T13:39:44.626Z,29.40
2023-05-16T13:42:11.478Z,29.60
2023-05-16T13:44:38.316Z,29.70
2023-05-16T13:47:05.258Z,29.80
2023-05-16T13:49:32.157Z,29.70
2023-05-16T13:51:59.108Z,29.70
2023-05-16T13:54:26.529Z,29.60
2023-05-16T13:56:53.460Z,29.60
2023-05-16T13:59:32.025Z,29.50
2023-05-16T14:02:05.481Z,29.40
2023-05-16T14:04:32.365Z,29.20
2023-05-16T14:07:02.192Z,29.10
2023-05-16T14:09:29.168Z,29.10
2023-05-16T14:11:56.067Z,29.00
2023-05-16T14:14:22.907Z,28.60
2023-05-16T14:16:49.947Z,28.70
2023-05-16T14:19:19.090Z,29.10
2023-05-16T14:21:46.558Z,29.60
2023-05-16T14:24:13.366Z,29.90
2023-05-16T14:26:41.245Z,30.10
2023-05-16T14:29:21.199Z,29.90
2023-05-16T14:32:32.072Z,29.90
2023-05-16T14:35:39.952Z,30.00
2023-05-16T14:38:08.451Z,30.30
2023-05-16T14:40:38.448Z,30.00
2023-05-16T14:43:05.378Z,29.90
2023-05-16T14:45:32.280Z,30.10
2023-05-16T14:47:59.469Z,30.30
2023-05-16T14:50:26.379Z,29.90
2023-05-16T14:52:53.413Z,29.20
2023-05-16T14:55:20.964Z,28.40
2023-05-16T14:57:50.425Z,27.70
2023-05-16T15:00:23.255Z,27.00
2023-05-16T15:02:50.124Z,26.20
2023-05-16T15:05:17.014Z,26.10
2023-05-16T15:07:44.204Z,26.20
2023-05-16T15:10:11.268Z,25.90
2023-05-16T15:12:40.939Z,25.50
2023-05-16T15:15:12.569Z,24.90
2023-05-16T15:17:41.841Z,24.40
2023-05-16T15:20:10.116Z,24.10
2023-05-16T15:22:37.345Z,23.90
2023-05-16T15:25:05.776Z,23.60
2023-05-16T15:27:32.802Z,23.20
2023-05-16T15:30:00.217Z,22.90
2023-05-16T15:32:27.204Z,22.60
2023-05-16T15:34:54.291Z,22.30
2023-05-16T15:37:21.272Z,22.10
2023-05-16T15:39:48.269Z,21.90
2023-05-16T15:42:15.180Z,21.80
2023-05-16T15:44:42.088Z,21.70
2023-05-16T15:47:10.270Z,21.70
2023-05-16T15:49:37.331Z,21.60
2023-05-16T15:52:04.911Z,21.60
2023-05-16T15:54:31.793Z,21.50
2023-05-16T15:56:58.988Z,21.50
2023-05-16T15:59:26.017Z,21.50
2023-05-16T16:01:53.071Z,21.50
2023-05-16T16:04:23.294Z,21.50
2023-05-16T16:06:50.514Z,21.50
2023-05-16T16:09:17.678Z,21.30
2023-05-16T16:11:44.732Z,21.10
2023-05-16T16:14:11.701Z,21.00
2023-05-16T16:16:40.873Z,20.90
2023-05-16T16:19:08.544Z,20.80
2023-05-16T16:21:35.964Z,20.70
2023-05-16T16:24:03.227Z,20.60
2023-05-16T16:26:31.671Z,20.60
2023-05-16T16:28:58.643Z,20.50
2023-05-16T16:31:25.983Z,20.50
2023-05-16T16:33:52.985Z,20.50
2023-05-16T16:36:19.908Z,20.50
2023-05-16T16:38:49.197Z,20.60
2023-05-16T16:41:16.529Z,20.80
2023-05-16T16:43:43.501Z,21.00
2023-05-16T16:46:10.422Z,21.20
2023-05-16T16:48:37.833Z,21.20
2023-05-16T16:51:05.108Z,21.10
2023-05-16T16:53:32.562Z,21.00
2023-05-16T16:55:59.460Z,20.90
2023-05-16T16:58:26.516Z,20.80
2023-05-16T17:00:53.467Z,20.70
2023-05-16T17:03:21.510Z,20.50
2023-05-16T17:05:48.500Z,20.40
2023-05-16T17:08:15.421Z,20.20
2023-05-16T17:10:42.380Z,20.20
2023-05-16T17:13:12.129Z,20.10
2023-05-16T17:15:39.048Z,20.10
2023-05-16T17:18:07.403Z,20.00
2023-05-16T17:20:35.310Z,20.00
2023-05-16T17:23:03.021Z,20.00
2023-05-16T17:25:30.284Z,20.00
2023-05-16T17:27:57.408Z,20.00
2023-05-16T17:30:24.301Z,20.00
2023-05-16T17:32:51.536Z,20.10
2023-05-16T17:35:20.173Z,20.30
2023-05-16T17:37:47.721Z,21.00
2023-05-16T17:40:17.239Z,21.70
2023-05-16T17:42:45.098Z,21.90
2023-05-16T17:45:12.830Z,22.20
2023-05-16T17:47:40.076Z,22.60
2023-05-16T17:50:09.762Z,22.90
2023-05-16T17:52:38.509Z,23.30
2023-05-16T17:55:06.730Z,23.50
2023-05-16T17:57:34.260Z,23.50
2023-05-16T18:00:01.722Z,23.20
2023-05-16T18:02:32.574Z,23.00
2023-05-16T18:04:59.645Z,22.70
2023-05-16T18:07:27.093Z,22.30
2023-05-16T18:09:54.301Z,21.90
2023-05-16T18:12:21.567Z,21.50
2023-05-16T18:14:48.465Z,21.10
2023-05-16T18:17:15.358Z,20.80
2023-05-16T18:19:42.271Z,20.60
2023-05-16T18:22:11.953Z,20.50
2023-05-16T18:24:39.760Z,20.40
2023-05-16T18:27:06.887Z,20.20
2023-05-16T18:29:34.345Z,20.00
2023-05-16T18:32:01.291Z,19.80
2023-05-16T18:34:28.425Z,19.70
2023-05-16T18:36:55.311Z,19.60
2023-05-16T18:39:22.350Z,19.40
2023-05-16T18:41:49.389Z,19.30
2023-05-16T18:44:17.262Z,19.20
2023-05-16T18:46:45.980Z,19.00
2023-05-16T18:49:13.627Z,18.90
2023-05-16T18:51:40.541Z,18.80
2023-05-16T18:54:07.575Z,18.80
2023-05-16T18:56:34.566Z,18.70
2023-05-16T18:59:01.546Z,18.80
2023-05-16T19:01:28.594Z,18.80
2023-05-16T19:03:55.861Z,18.80
2023-05-16T19:06:23.204Z,18.80
2023-05-16T19:08:50.105Z,18.70
2023-05-16T19:11:17.630Z,18.60
2023-05-16T19:13:47.471Z,18.50
2023-05-16T19:16:14.807Z,18.40
2023-05-16T19:18:41.871Z,18.40
2023-05-16T19:21:10.975Z,18.30
2023-05-16T19:23:37.962Z,18.20
2023-05-16T19:26:04.844Z,18.20
2023-05-16T19:28:32.482Z,18.10
2023-05-16T19:30:59.350Z,18.10
2023-05-16T19:33:26.734Z,18.00
2023-05-16T19:35:53.635Z,18.00
2023-05-16T19:38:20.628Z,17.90
2023-05-16T19:40:47.574Z,18.00
2023-05-16T19:43:14.450Z,18.20
2023-05-16T19:45:41.522Z,18.30
2023-05-16T19:48:08.681Z,18.30
2023-05-16T19:50:36.500Z,18.30
2023-05-16T19:53:04.049Z,18.20
2023-05-16T19:55:31.373Z,18.10
2023-05-16T19:57:58.550Z,18.00
2023-05-16T20:00:25.558Z,17.80
2023-05-16T20:02:52.565Z,17.70
2023-05-16T20:05:22.755Z,17.50
2023-05-16T20:07:49.913Z,17.30
2023-05-16T20:10:17.585Z,17.20
2023-05-16T20:12:45.031Z,17.00
2023-05-16T20:15:12.079Z,16.90
2023-05-16T20:17:39.320Z,16.80
2023-05-16T20:20:07.367Z,16.60
2023-05-16T20:22:34.632Z,16.50
2023-05-16T20:25:01.634Z,16.40
2023-05-16T20:27:31.060Z,16.30
2023-05-16T20:29:58.636Z,16.10
2023-05-16T20:32:25.617Z,16.00
2023-05-16T20:34:52.458Z,15.90
2023-05-16T20:37:21.032Z,15.80
2023-05-16T20:39:47.814Z,15.70
2023-05-16T20:42:14.629Z,15.60
2023-05-16T20:44:41.598Z,15.50
2023-05-16T20:47:08.503Z,15.40
2023-05-16T20:49:39.743Z,15.30
2023-05-16T20:52:06.879Z,15.20
2023-05-16T20:54:34.034Z,15.10
2023-05-16T20:57:00.910Z,15.00
2023-05-16T20:59:27.820Z,15.00
2023-05-16T21:01:55.237Z,14.90
2023-05-16T21:04:22.142Z,14.80
2023-05-16T21:06:49.107Z,14.70
2023-05-16T21:09:16.080Z,14.70
2023-05-16T21:11:43.043Z,14.60
2023-05-16T21:14:09.982Z,14.50
2023-05-16T21:16:36.769Z,14.50
2023-05-16T21:19:04.373Z,14.50
2023-05-16T21:21:31.677Z,14.40
2023-05-16T21:23:58.565Z,14.40
2023-05-16T21:26:26.162Z,14.40
2023-05-16T21:28:55.447Z,14.30
2023-05-16T21:31:23.156Z,14.20
2023-05-16T21:33:53.237Z,14.10
2023-05-16T21:36:20.824Z,14.10
2023-05-16T21:38:48.040Z,14.00
2023-05-16T21:41:15.088Z,14.00
2023-05-16T21:43:42.001Z,13.90
2023-05-16T21:46:08.943Z,13.90
2023-05-16T21:48:36.033Z,13.80
2023-05-16T21:51:03.506Z,13.80
2023-05-16T21:53:30.363Z,13.80
2023-05-16T21:55:57.219Z,13.70
2023-05-16T21:58:25.251Z,13.70
2023-05-16T22:00:52.244Z,13.70
2023-05-16T22:03:21.085Z,13.60
2023-05-16T22:05:48.349Z,13.60
2023-05-16T22:08:15.417Z,13.50
2023-05-16T22:10:42.418Z,13.40
2023-05-16T22:13:09.219Z,13.40
2023-05-16T22:15:36.144Z,13.30
2023-05-16T22:18:03.242Z,13.30
2023-05-16T22:20:30.218Z,13.30
2023-05-16T22:22:57.090Z,13.20
2023-05-16T22:25:24.144Z,13.20
2023-05-16T22:27:51.006Z,13.20
2023-05-16T22:30:18.345Z,13.20
2023-05-16T22:32:46.868Z,13.10
2023-05-16T22:35:14.137Z,13.10
2023-05-16T22:37:40.958Z,13.00
2023-05-16T22:40:08.604Z,13.00
2023-05-16T22:42:35.526Z,12.90
2023-05-16T22:45:03.801Z,12.90
2023-05-16T22:47:30.810Z,12.80
2023-05-16T22:49:57.760Z,12.80
2023-05-16T22:52:24.736Z,12.70
2023-05-16T22:54:51.593Z,12.70
2023-05-16T22:57:18.473Z,12.70
2023-05-16T22:59:45.443Z,12.80
2023-05-16T23:02:12.293Z,12.70
2023-05-16T23:04:39.176Z,12.70
2023-05-16T23:07:06.026Z,12.60
2023-05-16T23:09:32.808Z,12.60
2023-05-16T23:11:59.656Z,12.50
2023-05-16T23:14:26.573Z,12.50
2023-05-16T23:16:53.481Z,12.40
2023-05-16T23:19:20.471Z,12.40
2023-05-16T23:21:47.530Z,12.30
2023-05-16T23:24:14.377Z,12.40
2023-05-16T23:26:41.199Z,12.30
2023-05-16T23:29:08.152Z,12.30
2023-05-16T23:31:34.956Z,12.30
2023-05-16T23:34:02.117Z,12.30
2023-05-16T23:36:29.132Z,12.20
2023-05-16T23:38:56.000Z,12.10
2023-05-16T23:41:22.908Z,12.10
2023-05-16T23:43:52.433Z,12.10
2023-05-16T23:46:19.373Z,12.10
2023-05-16T23:48:46.384Z,12.00
2023-05-16T23:51:13.292Z,12.00
2023-05-16T23:53:40.170Z,12.00
2023-05-16T23:56:07.209Z,12.00
2023-05-16T23:58:34.281Z,11.90
